KPHD/PHD METAR and TAF weather

Enter ICAO airport designator
Station Type Date Time Source
KPHD METAR 2020/12/05 05:53 UTC NOAA

KPHD 050553Z AUTO 00000KT 5SM BR SCT055 BKN070 OVC080 03/02 A2990 RMK AO2 SLP132 T00280022 10033 20011 58003


Station Type Date Time Source
KPHD Decoded METAR 2020/12/05 05:53 UTC NOAA

NEW PHILADELPHIA CLEVER FLD, OH, United States (KPHD) 40-28N 81-25W 272M
Dec 05, 2020 - 12:53 AM EST / 2020.12.05 0553 UTC
Wind: Calm:0
Visibility: 5 mile(s):0
Sky conditions: overcast
Weather: mist
Temperature: 37.0 F (2.8 C)
Dew Point: 36.0 F (2.2 C)
Relative Humidity: 95%
Pressure (altimeter): 29.9 in. Hg (1012 hPa)
Pressure tendency: 0.01 inches (0.3 hPa) lower than three hours ago
ob: KPHD 050553Z AUTO 00000KT 5SM BR SCT055 BKN070 OVC080 03/02 A2990 RMK AO2 SLP132 T00280022 10033 20011 58003
cycle: 6

Station Type Date Time Source
KPHD TAF UTC NOAA

Error!

Example: see airport list